Time,TemperatureF,DewpointF,PressureIn,WindDirection,WindDirectionDegrees,WindSpeedMPH,WindSpeedGustMPH,Humidity,HourlyPrecipIn,Conditions,Clouds,dailyrainin,SolarRadiationWatts/m^2,SoftwareType,DateUTC
2013-08-31 00:12:00,80.0,62.0,-100.00,SE,134,3.0,5.0,54,0.00,,,0.00,0.000000,,2013-08-31 07:12:00,
2013-08-31 00:22:00,80.0,62.0,-100.00,SE,134,3.0,5.0,54,0.00,,,0.00,0.000000,,2013-08-31 07:22:00,
2013-08-31 00:32:00,80.0,62.0,-100.00,SE,134,3.0,5.0,54,0.00,,,0.00,0.000000,,2013-08-31 07:32:00,
2013-08-31 00:42:00,80.0,62.0,-100.00,SE,134,3.0,5.0,54,0.00,,,0.00,0.000000,,2013-08-31 07:42:00,
2013-08-31 01:12:00,80.0,62.0,-100.00,ESE,103,1.0,4.0,55,0.00,,,0.00,1.000000,,2013-08-31 08:12:00,
2013-08-31 01:22:00,80.0,62.0,-100.00,ESE,103,1.0,4.0,55,0.00,,,0.00,1.000000,,2013-08-31 08:22:00,
2013-08-31 01:32:00,80.0,62.0,-100.00,ESE,103,1.0,4.0,55,0.00,,,0.00,1.000000,,2013-08-31 08:32:00,
2013-08-31 01:42:00,80.0,62.0,-100.00,ESE,103,1.0,4.0,55,0.00,,,0.00,1.000000,,2013-08-31 08:42:00,
2013-08-31 02:12:00,80.0,63.0,-100.00,SSE,149,4.0,5.0,56,0.00,,,0.00,1.000000,,2013-08-31 09:12:00,
2013-08-31 02:23:00,80.0,63.0,-100.00,SSE,149,4.0,5.0,56,0.00,,,0.00,1.000000,,2013-08-31 09:23:00,
2013-08-31 02:33:00,80.0,63.0,-100.00,SSE,149,4.0,5.0,56,0.00,,,0.00,1.000000,,2013-08-31 09:33:00,
2013-08-31 02:43:00,80.0,63.0,-100.00,SSE,149,4.0,5.0,56,0.00,,,0.00,1.000000,,2013-08-31 09:43:00,
2013-08-31 03:12:00,78.0,62.0,-100.00,ESE,106,0.0,6.0,57,0.00,,,0.00,1.000000,,2013-08-31 10:12:00,
2013-08-31 03:23:00,78.0,62.0,-100.00,ESE,106,0.0,6.0,57,0.00,,,0.00,1.000000,,2013-08-31 10:23:00,
2013-08-31 03:33:00,78.0,62.0,-100.00,ESE,106,0.0,6.0,57,0.00,,,0.00,1.000000,,2013-08-31 10:33:00,
2013-08-31 03:43:00,78.0,62.0,-100.00,ESE,106,0.0,6.0,57,0.00,,,0.00,1.000000,,2013-08-31 10:43:00,
2013-08-31 04:12:00,78.0,62.0,-100.00,East,87,0.0,4.0,58,0.00,,,0.00,1.000000,,2013-08-31 11:12:00,
2013-08-31 04:21:00,78.0,62.0,-100.00,East,87,0.0,4.0,58,0.00,,,0.00,1.000000,,2013-08-31 11:21:00,
2013-08-31 04:33:00,78.0,62.0,-100.00,East,87,0.0,4.0,58,0.00,,,0.00,1.000000,,2013-08-31 11:33:00,
2013-08-31 04:42:00,78.0,62.0,-100.00,East,87,0.0,4.0,58,0.00,,,0.00,1.000000,,2013-08-31 11:42:00,
2013-08-31 05:11:00,78.0,62.0,-100.00,SE,140,2.0,4.0,59,0.00,,,0.00,1.000000,,2013-08-31 12:11:00,
2013-08-31 05:22:00,78.0,62.0,-100.00,SE,140,2.0,4.0,59,0.00,,,0.00,1.000000,,2013-08-31 12:22:00,
2013-08-31 05:31:00,78.0,62.0,-100.00,SE,140,2.0,4.0,59,0.00,,,0.00,1.000000,,2013-08-31 12:31:00,
2013-08-31 05:42:00,78.0,62.0,-100.00,SE,140,2.0,4.0,59,0.00,,,0.00,1.000000,,2013-08-31 12:42:00,
2013-08-31 06:11:00,77.0,62.0,-100.00,East,98,0.0,2.0,60,0.00,,,0.00,0.000000,,2013-08-31 13:11:00,
2013-08-31 06:22:00,77.0,62.0,-100.00,East,98,0.0,2.0,60,0.00,,,0.00,0.000000,,2013-08-31 13:22:00,
2013-08-31 06:31:00,77.0,62.0,-100.00,East,98,0.0,2.0,60,0.00,,,0.00,0.000000,,2013-08-31 13:31:00,
2013-08-31 06:42:00,77.0,62.0,-100.00,East,98,0.0,2.0,60,0.00,,,0.00,0.000000,,2013-08-31 13:42:00,
2013-08-31 07:12:00,76.0,61.0,-100.00,West,275,0.0,3.0,60,0.00,,,0.00,3.000000,,2013-08-31 14:12:00,
2013-08-31 07:22:00,76.0,61.0,-100.00,West,275,0.0,3.0,60,0.00,,,0.00,3.000000,,2013-08-31 14:22:00,
2013-08-31 07:32:00,76.0,61.0,-100.00,West,275,0.0,3.0,60,0.00,,,0.00,3.000000,,2013-08-31 14:32:00,
2013-08-31 07:42:00,76.0,61.0,-100.00,West,275,0.0,3.0,60,0.00,,,0.00,3.000000,,2013-08-31 14:42:00,
2013-08-31 08:11:00,77.0,61.0,-100.00,West,259,1.0,3.0,58,0.00,,,0.00,109.000000,,2013-08-31 15:11:00,
2013-08-31 08:23:00,77.0,61.0,-100.00,West,259,1.0,3.0,58,0.00,,,0.00,109.000000,,2013-08-31 15:23:00,
2013-08-31 08:34:00,77.0,61.0,-100.00,West,259,1.0,3.0,58,0.00,,,0.00,109.000000,,2013-08-31 15:34:00,
2013-08-31 08:44:00,77.0,61.0,-100.00,West,259,1.0,3.0,58,0.00,,,0.00,109.000000,,2013-08-31 15:44:00,
2013-08-31 09:14:00,75.0,58.0,-100.00,WSW,245,5.0,6.0,56,0.00,,,0.00,325.000000,,2013-08-31 16:14:00,
2013-08-31 09:25:00,75.0,58.0,-100.00,WSW,245,5.0,6.0,56,0.00,,,0.00,325.000000,,2013-08-31 16:25:00,
2013-08-31 09:34:00,75.0,58.0,-100.00,WSW,245,5.0,6.0,56,0.00,,,0.00,325.000000,,2013-08-31 16:34:00,
2013-08-31 09:44:00,75.0,58.0,-100.00,WSW,245,5.0,6.0,56,0.00,,,0.00,325.000000,,2013-08-31 16:44:00,
2013-08-31 10:12:00,78.0,57.0,-100.00,West,266,9.0,11.0,48,0.00,,,0.00,502.000000,,2013-08-31 17:12:00,
2013-08-31 10:23:00,78.0,57.0,-100.00,West,266,9.0,11.0,48,0.00,,,0.00,502.000000,,2013-08-31 17:23:00,
2013-08-31 10:34:00,78.0,57.0,-100.00,West,266,9.0,11.0,48,0.00,,,0.00,502.000000,,2013-08-31 17:34:00,
2013-08-31 10:42:00,78.0,57.0,-100.00,West,266,9.0,11.0,48,0.00,,,0.00,502.000000,,2013-08-31 17:42:00,
2013-08-31 11:12:00,83.0,61.0,-100.00,West,276,9.0,13.0,48,0.00,,,0.00,661.000000,,2013-08-31 18:12:00,
2013-08-31 11:21:00,83.0,61.0,-100.00,West,276,9.0,13.0,48,0.00,,,0.00,661.000000,,2013-08-31 18:21:00,
2013-08-31 11:32:00,83.0,61.0,-100.00,West,276,9.0,13.0,48,0.00,,,0.00,661.000000,,2013-08-31 18:32:00,
2013-08-31 11:42:00,83.0,61.0,-100.00,West,276,9.0,13.0,48,0.00,,,0.00,661.000000,,2013-08-31 18:42:00,
2013-08-31 12:12:00,84.0,62.0,-100.00,West,267,13.0,21.0,47,0.00,,,0.00,782.000000,,2013-08-31 19:12:00,
2013-08-31 12:22:00,84.0,62.0,-100.00,West,267,13.0,21.0,47,0.00,,,0.00,782.000000,,2013-08-31 19:22:00,
2013-08-31 12:32:00,84.0,62.0,-100.00,West,267,13.0,21.0,47,0.00,,,0.00,782.000000,,2013-08-31 19:32:00,
2013-08-31 12:42:00,84.0,62.0,-100.00,West,267,13.0,21.0,47,0.00,,,0.00,782.000000,,2013-08-31 19:42:00,
2013-08-31 13:12:00,89.0,62.0,-100.00,WNW,284,13.0,22.0,41,0.00,,,0.00,851.000000,,2013-08-31 20:12:00,
2013-08-31 13:22:00,89.0,62.0,-100.00,WNW,284,13.0,22.0,41,0.00,,,0.00,851.000000,,2013-08-31 20:22:00,
2013-08-31 13:32:00,89.0,62.0,-100.00,WNW,284,13.0,22.0,41,0.00,,,0.00,851.000000,,2013-08-31 20:32:00,
2013-08-31 13:42:00,89.0,62.0,-100.00,WNW,284,13.0,22.0,41,0.00,,,0.00,851.000000,,2013-08-31 20:42:00,
2013-08-31 14:12:00,87.0,62.0,-100.00,WSW,257,17.0,25.0,44,0.00,,,0.00,856.000000,,2013-08-31 21:12:00,
2013-08-31 14:22:00,87.0,62.0,-100.00,WSW,257,17.0,25.0,44,0.00,,,0.00,856.000000,,2013-08-31 21:22:00,
2013-08-31 14:34:00,87.0,62.0,-100.00,WSW,257,17.0,25.0,44,0.00,,,0.00,856.000000,,2013-08-31 21:34:00,
2013-08-31 14:44:00,87.0,62.0,-100.00,WSW,257,17.0,25.0,44,0.00,,,0.00,856.000000,,2013-08-31 21:44:00,
2013-08-31 15:13:00,86.0,63.0,-100.00,West,263,17.0,27.0,47,0.00,,,0.00,802.000000,,2013-08-31 22:13:00,
2013-08-31 15:23:00,86.0,63.0,-100.00,West,263,17.0,27.0,47,0.00,,,0.00,802.000000,,2013-08-31 22:23:00,
2013-08-31 15:32:00,86.0,63.0,-100.00,West,263,17.0,27.0,47,0.00,,,0.00,802.000000,,2013-08-31 22:32:00,
2013-08-31 15:43:00,86.0,63.0,-100.00,West,263,17.0,27.0,47,0.00,,,0.00,802.000000,,2013-08-31 22:43:00,
2013-08-31 16:12:00,84.0,62.0,-100.00,WSW,251,18.0,28.0,47,0.00,,,0.00,706.000000,,2013-08-31 23:12:00,
2013-08-31 16:22:00,84.0,62.0,-100.00,WSW,251,18.0,28.0,47,0.00,,,0.00,706.000000,,2013-08-31 23:22:00,
2013-08-31 16:33:00,84.0,62.0,-100.00,WSW,251,18.0,28.0,47,0.00,,,0.00,706.000000,,2013-08-31 23:33:00,
2013-08-31 16:42:00,84.0,62.0,-100.00,WSW,251,18.0,28.0,47,0.00,,,0.00,706.000000,,2013-08-31 23:42:00,
2013-08-31 17:11:00,83.0,61.0,-100.00,WSW,257,17.0,28.0,48,0.00,,,0.00,548.000000,,2013-09-01 00:11:00,
2013-08-31 17:21:00,83.0,61.0,-100.00,WSW,257,17.0,28.0,48,0.00,,,0.00,548.000000,,2013-09-01 00:21:00,
2013-08-31 17:32:00,83.0,61.0,-100.00,WSW,257,17.0,28.0,48,0.00,,,0.00,548.000000,,2013-09-01 00:32:00,
2013-08-31 17:42:00,83.0,61.0,-100.00,WSW,257,17.0,28.0,48,0.00,,,0.00,548.000000,,2013-09-01 00:42:00,
2013-08-31 18:11:00,81.0,64.0,-100.00,WSW,242,16.0,25.0,56,0.00,,,0.00,353.000000,,2013-09-01 01:11:00,
2013-08-31 18:21:00,81.0,64.0,-100.00,WSW,242,16.0,25.0,56,0.00,,,0.00,353.000000,,2013-09-01 01:21:00,
2013-08-31 18:32:00,81.0,64.0,-100.00,WSW,242,16.0,25.0,56,0.00,,,0.00,353.000000,,2013-09-01 01:32:00,
2013-08-31 18:42:00,81.0,64.0,-100.00,WSW,242,16.0,25.0,56,0.00,,,0.00,353.000000,,2013-09-01 01:42:00,
2013-08-31 19:12:00,79.0,63.0,-100.00,SW,236,16.0,24.0,58,0.00,,,0.00,171.000000,,2013-09-01 02:12:00,
2013-08-31 19:22:00,79.0,63.0,-100.00,SW,236,16.0,24.0,58,0.00,,,0.00,171.000000,,2013-09-01 02:22:00,
2013-08-31 19:32:00,79.0,63.0,-100.00,SW,236,16.0,24.0,58,0.00,,,0.00,171.000000,,2013-09-01 02:32:00,
2013-08-31 19:42:00,79.0,63.0,-100.00,SW,236,16.0,24.0,58,0.00,,,0.00,171.000000,,2013-09-01 02:42:00,
2013-08-31 20:12:00,77.0,63.0,-100.00,WSW,251,11.0,21.0,63,0.00,,,0.00,16.000000,,2013-09-01 03:12:00,
2013-08-31 20:23:00,77.0,63.0,-100.00,WSW,251,11.0,21.0,63,0.00,,,0.00,16.000000,,2013-09-01 03:23:00,
2013-08-31 20:35:00,77.0,63.0,-100.00,WSW,251,11.0,21.0,63,0.00,,,0.00,16.000000,,2013-09-01 03:35:00,
2013-08-31 20:44:00,77.0,63.0,-100.00,WSW,251,11.0,21.0,63,0.00,,,0.00,16.000000,,2013-09-01 03:44:00,
2013-08-31 21:03:00,-999.0,-99.9,-100.00,WSW,244,11.0,16.0,-999,-99.99,,,-99.99,1.000000,,2013-09-01 04:03:00,
2013-08-31 21:14:00,76.0,64.0,-100.00,WSW,244,11.0,16.0,66,0.00,,,0.00,1.000000,,2013-09-01 04:14:00,
2013-08-31 21:24:00,76.0,64.0,-100.00,WSW,244,11.0,16.0,66,0.00,,,0.00,1.000000,,2013-09-01 04:24:00,
2013-08-31 21:34:00,76.0,64.0,-100.00,WSW,244,11.0,16.0,66,0.00,,,0.00,1.000000,,2013-09-01 04:34:00,
2013-08-31 21:43:00,76.0,64.0,-100.00,WSW,244,11.0,16.0,66,0.00,,,0.00,1.000000,,2013-09-01 04:43:00,
2013-08-31 22:12:00,73.0,63.0,-100.00,West,269,3.0,17.0,70,0.00,,,0.00,1.000000,,2013-09-01 05:12:00,
2013-08-31 22:23:00,73.0,63.0,-100.00,West,269,3.0,17.0,70,0.00,,,0.00,1.000000,,2013-09-01 05:23:00,
2013-08-31 22:34:00,73.0,63.0,-100.00,West,269,3.0,17.0,70,0.00,,,0.00,1.000000,,2013-09-01 05:34:00,
2013-08-31 22:43:00,73.0,63.0,-100.00,West,269,3.0,17.0,70,0.00,,,0.00,1.000000,,2013-09-01 05:43:00,
2013-08-31 23:12:00,73.0,63.0,-100.00,WSW,253,7.0,10.0,71,0.00,,,0.00,1.000000,,2013-09-01 06:12:00,
2013-08-31 23:22:00,73.0,63.0,-100.00,WSW,253,7.0,10.0,71,0.00,,,0.00,1.000000,,2013-09-01 06:22:00,
2013-08-31 23:32:00,73.0,63.0,-100.00,WSW,253,7.0,10.0,71,0.00,,,0.00,1.000000,,2013-09-01 06:32:00,
2013-08-31 23:42:00,73.0,63.0,-100.00,WSW,253,7.0,10.0,71,0.00,,,0.00,1.000000,,2013-09-01 06:42:00,